Latest Weather Observations for Hughenden

IDQ60801

Issued at 7:05 pm EST Thursday 27 November 2014 (issued every 30 minutes, with the page automatically refreshed every 10 minutes)

About weather observations | Map of weather stations | Latest weather observations for QLD | Other Formats
Station Details ID: 030022 Name: HUGHENDEN AIRPORT Lat: -20.82 Lon: 144.23 Height: 316.4 m
Data from the previous 72 hours. | See also: Recent months at Hughenden
Date/Time
EST
Temp
°C
App
Temp
°C
Dew
Point
Rel
Hum
%
Delta-T
°C
Wind Press
QNH
hPa
Press
MSL
hPa
Rain
since 9 am
mm
Dir
 
Spd
km/h
Gust
km/h
Spd
kts
Gust
kts
27/07:00pm 33.5 30.0 10.2 24 13.6 ESE 19 26 10 14 1009.8 1007.6 0.0
27/06:30pm 34.2 30.5 10.1 23 14.1 ESE 20 26 11 14 1009.4 1007.2 0.0
27/06:00pm 35.1 30.6 10.2 22 14.7 SE 24 28 13 15 1009.2 1007.0 0.0
27/05:30pm 35.6 32.0 9.9 21 15.1 E 19 28 10 15 1008.9 1006.7 0.0
27/05:00pm 36.0 32.3 10.2 21 15.2 E 20 28 11 15 1008.6 1006.4 0.0
27/04:30pm 36.4 32.1 10.6 21 15.3 ESE 24 30 13 16 1008.6 1006.4 0.0
27/04:00pm 35.3 32.6 10.4 22 14.7 E 15 20 8 11 1008.8 1006.6 0.0
27/03:30pm 35.5 33.0 9.8 21 15.0 E 13 20 7 11 1009.2 1007.0 0.0
27/03:00pm 36.2 32.4 9.7 20 15.6 ESE 20 33 11 18 1009.6 1007.4 0.0
27/02:30pm 36.1 33.6 11.0 22 15.0 E 15 28 8 15 1009.9 1007.7 0.0
27/02:00pm 35.8 33.6 12.1 24 14.4 E 15 24 8 13 1010.3 1008.0 0.0
27/01:30pm 35.0 31.8 11.4 24 14.1 E 19 28 10 15 1010.8 1008.6 0.0
27/01:00pm 35.0 32.4 12.0 25 13.9 E 17 32 9 17 1011.1 1008.9 0.0
27/12:30pm 33.4 30.2 11.3 26 13.1 E 19 28 10 15 1011.5 1009.3 0.0
27/12:00pm 33.9 30.1 12.3 27 13.0 E 24 32 13 17 1011.9 1009.7 0.0
27/11:30am 32.9 32.0 12.5 29 12.3 E 9 20 5 11 1012.4 1010.2 0.0
27/11:00am 33.0 30.0 12.6 29 12.3 ENE 20 32 11 17 1013.0 1010.8 0.0
27/10:30am 32.1 29.2 12.8 30 11.7 ENE 20 30 11 16 1013.5 1011.2 0.0
27/10:00am 31.3 28.5 13.1 33 11.0 NE 20 35 11 19 1013.7 1011.5 0.0
27/09:30am 31.5 28.9 13.7 33 10.9 NE 20 28 11 15 1014.0 1011.8 0.0
27/09:00am 30.3 27.0 14.0 37 10.0 NE 24 35 13 19 1014.2 1012.0 0.0
27/08:30am 29.1 25.7 13.7 38 9.3 NE 24 32 13 17 1014.0 1011.8 0.0
27/08:00am 27.9 23.5 14.2 43 8.3 ENE 30 37 16 20 1014.0 1011.8 0.0
27/07:30am 27.5 23.9 15.2 47 7.6 ENE 28 35 15 19 1014.3 1012.1 0.0
27/07:00am 26.6 23.8 17.4 57 5.8 ENE 28 35 15 19 1014.0 1011.8 0.0
27/06:30am 26.5 24.8 17.3 57 5.8 ENE 22 30 12 16 1013.8 1011.6 0.0
27/06:00am 26.2 25.1 17.3 58 5.6 ENE 19 26 10 14 1013.1 1010.9 0.0
27/05:30am 26.2 24.8 17.0 57 5.8 ENE 20 28 11 15 1012.8 1010.6 0.0
27/05:00am 26.1 24.8 16.9 57 5.8 NE 19 26 10 14 1012.4 1010.2 0.0
27/04:30am 26.2 23.3 17.0 57 5.8 ENE 28 35 15 19 1012.1 1009.9 0.0
27/04:00am 26.7 24.0 16.6 54 6.3 ENE 26 35 14 19 1011.6 1009.4 0.0
27/03:30am 27.1 24.7 16.4 52 6.7 ENE 24 33 13 18 1011.1 1008.9 0.0
27/03:00am 27.4 25.0 16.4 51 6.9 NE 24 35 13 19 1010.8 1008.6 0.0
27/02:30am 27.6 25.8 15.9 49 7.3 ENE 20 28 11 15 1010.5 1008.2 0.0
27/02:00am 27.9 26.5 15.5 46 7.7 ENE 17 24 9 13 1010.4 1008.1 0.0
27/01:30am 28.2 26.8 15.5 46 7.9 ENE 17 26 9 14 1010.3 1008.0 0.0
27/01:00am 28.5 26.6 15.8 46 7.9 NE 20 28 11 15 1010.6 1008.3 0.0
27/12:30am 28.8 27.5 15.7 45 8.2 ENE 17 24 9 13 1011.0 1008.8 0.0
27/12:00am 29.3 27.3 15.4 42 8.6 NE 20 26 11 14 1011.2 1009.0 0.0
 
Date/Time
EST
Temp
°C
App
Temp
°C
Dew
Point
Rel
Hum
%
Delta-T
°C
Wind Press
QNH
hPa
Press
MSL
hPa
Rain
since 9 am
mm
Dir
 
Spd
km/h
Gust
km/h
Spd
kts
Gust
kts
26/11:30pm 29.5 28.1 15.6 43 8.7 NE 17 24 9 13 1011.4 1009.2 0.0
26/11:00pm 29.6 27.5 15.3 41 8.9 NE 20 28 11 15 1011.6 1009.4 0.0
26/10:30pm 29.7 28.2 15.4 42 8.9 NNE 17 22 9 12 1011.6 1009.4 0.0
26/10:00pm 30.0 28.1 15.3 41 9.2 NE 19 26 10 14 1011.8 1009.6 0.0
26/09:30pm 30.3 27.9 14.4 38 9.8 NE 20 28 11 15 1011.6 1009.4 0.0
26/09:00pm 30.8 28.5 14.0 36 10.3 NNE 19 26 10 14 1011.3 1009.1 0.0
26/08:30pm 31.2 26.8 13.0 33 11.0 NE 28 35 15 19 1011.1 1008.9 0.0
26/08:00pm 31.5 28.5 13.7 33 10.9 ENE 22 33 12 18 1010.8 1008.6 0.0
26/07:30pm 31.6 28.3 15.1 36 10.3 ENE 26 35 14 19 1010.4 1008.1 0.0
26/07:00pm 31.9 26.6 14.1 34 11.0 ENE 35 46 19 25 1009.9 1007.7 0.0
26/06:43pm 33.0 26.2 12.1 28 12.5 ENE 39 46 21 25 1009.5 1007.3 0.0
26/06:35pm 33.4 27.9 13.5 30 12.2 E 35 46 19 25 1009.2 1007.0 0.0
26/06:30pm 34.9 31.7 10.0 22 14.6 ESE 17 20 9 11 1009.1 1006.9 0.0
26/06:00pm 35.3 32.6 10.4 22 14.7 E 15 20 8 11 1008.9 1006.7 0.0
26/05:30pm 35.7 32.7 10.7 22 14.8 ENE 17 22 9 12 1008.6 1006.4 0.0
26/05:00pm 35.6 32.4 9.9 21 15.1 ESE 17 20 9 11 1008.4 1006.2 0.0
26/04:30pm 36.0 34.4 10.2 21 15.2 ENE 9 11 5 6 1008.3 1006.1 0.0
26/04:00pm 35.9 32.4 8.7 19 15.7 ENE 17 24 9 13 1008.3 1006.1 0.0
26/03:30pm 35.9 30.3 11.5 23 14.7 ESE 32 39 17 21 1008.8 1006.6 0.0
26/03:00pm 35.2 32.1 11.6 24 14.2 E 19 28 10 15 1009.1 1006.9 0.0
26/02:30pm 35.3 32.0 11.7 24 14.2 ENE 20 32 11 17 1009.2 1007.0 0.0
26/02:00pm 36.1 32.6 11.0 22 15.0 ENE 20 43 11 23 1009.3 1007.1 0.0
26/01:30pm 36.2 33.1 10.4 21 15.3 ESE 17 30 9 16 1009.7 1007.5 0.0
26/01:00pm 35.7 31.4 10.7 22 14.9 ESE 24 37 13 20 1010.2 1007.9 0.0
26/12:30pm 35.5 31.9 9.8 21 15.0 E 19 28 10 15 1010.6 1008.3 0.0
26/12:00pm 34.9 30.6 9.3 21 14.8 ENE 22 35 12 19 1011.1 1008.9 0.0
26/11:30am 35.3 31.3 11.7 24 14.2 E 24 28 13 15 1011.6 1009.4 0.0
26/11:00am 33.8 30.7 11.6 26 13.3 E 19 28 10 15 1012.0 1009.8 0.0
26/10:30am 33.6 30.6 12.6 28 12.7 ENE 20 26 11 14 1012.3 1010.1 0.0
26/10:00am 32.4 29.6 13.1 31 11.7 NE 20 30 11 16 1012.6 1010.4 0.0
26/09:30am 31.5 28.4 13.3 33 11.0 ENE 22 32 12 17 1012.9 1010.7 0.0
26/09:00am 30.8 27.9 14.0 36 10.3 NE 22 32 12 17 1012.8 1010.6 0.0
26/08:30am 29.7 26.8 15.0 40 9.1 NE 24 32 13 17 1012.7 1010.5 0.0
26/08:00am 28.8 25.5 15.0 43 8.5 NE 26 33 14 18 1012.7 1010.5 0.0
26/07:30am 27.3 24.6 14.7 46 7.7 NE 22 30 12 16 1012.3 1010.1 0.0
26/07:00am 26.7 23.6 14.5 47 7.4 NE 24 32 13 17 1012.5 1010.3 0.0
26/06:30am 26.1 23.8 14.6 49 7.0 NE 20 30 11 16 1012.5 1010.3 0.0
26/06:00am 25.6 23.6 13.8 48 7.1 ENE 17 22 9 12 1012.2 1010.0 0.0
26/05:30am 25.7 23.1 13.2 46 7.4 NE 19 28 10 15 1011.8 1009.6 0.0
26/05:00am 26.0 22.7 12.8 44 7.8 NE 22 33 12 18 1011.3 1009.1 0.0
26/04:30am 26.3 23.4 12.4 42 8.1 NE 19 24 10 13 1011.2 1009.0 0.0
26/04:00am 26.5 23.4 10.2 36 9.2 ENE 17 24 9 13 1010.9 1008.7 0.0
26/03:30am 26.9 23.9 9.3 33 9.8 E 15 19 8 10 1010.6 1008.3 0.0
26/03:00am 27.2 23.9 9.5 33 9.9 E 17 22 9 12 1010.3 1008.0 0.0
26/02:30am 27.5 24.3 11.1 36 9.5 ENE 19 28 10 15 1010.1 1007.8 0.0
26/02:00am 28.0 24.1 12.0 37 9.4 NE 24 32 13 17 1009.9 1007.7 0.0
26/01:30am 28.2 25.8 13.7 41 8.7 NE 19 24 10 13 1010.1 1007.8 0.0
26/01:00am 28.9 26.5 14.3 40 8.9 NE 20 26 11 14 1010.3 1008.0 0.0
26/12:30am 29.7 26.8 15.0 40 9.1 NE 24 32 13 17 1010.6 1008.3 0.0
26/12:00am 29.9 27.7 13.2 36 10.1 NE 17 22 9 12 1010.7 1008.4 0.0
 
Date/Time
EST
Temp
°C
App
Temp
°C
Dew
Point
Rel
Hum
%
Delta-T
°C
Wind Press
QNH
hPa
Press
MSL
hPa
Rain
since 9 am
mm
Dir
 
Spd
km/h
Gust
km/h
Spd
kts
Gust
kts
25/11:30pm 30.9 26.9 9.2 26 12.3 ENE 20 30 11 16 1010.8 1008.6 0.0
25/11:00pm 31.3 27.5 7.7 23 13.1 E 17 20 9 11 1010.7 1008.4 0.0
25/10:30pm 31.7 27.9 7.4 22 13.5 E 17 22 9 12 1010.9 1008.7 0.0
25/10:00pm 32.2 27.9 7.1 21 13.9 E 19 26 10 14 1010.8 1008.6 0.0
25/09:30pm 32.6 28.8 7.4 21 14.0 E 17 24 9 13 1010.7 1008.4 0.0
25/09:00pm 33.1 29.2 7.1 20 14.5 E 17 22 9 12 1010.6 1008.3 0.0
25/08:30pm 33.4 29.2 7.4 20 14.5 E 19 24 10 13 1010.2 1007.9 0.0
25/08:00pm 33.8 30.0 7.7 20 14.7 E 17 20 9 11 1009.9 1007.7 0.0
25/07:30pm 34.6 30.4 8.4 20 15.0 E 20 28 11 15 1009.4 1007.2 0.0
25/07:00pm 35.0 30.7 7.9 19 15.4 E 20 28 11 15 1008.8 1006.6 0.0
25/06:30pm 35.7 30.0 6.9 17 16.1 E 26 35 14 19 1008.4 1006.2 0.0
25/06:00pm 36.5 31.5 6.6 16 16.8 E 22 35 12 19 1008.0 1005.8 0.0
25/05:30pm 36.9 31.8 7.8 17 16.6 ENE 24 32 13 17 1007.9 1005.6 0.0
25/05:00pm 37.4 32.8 8.2 17 16.9 SE 22 39 12 21 1007.7 1005.4 0.0
25/04:30pm 37.6 32.3 8.4 17 16.9 ESE 26 41 14 22 1007.8 1005.5 0.0
25/04:00pm 36.8 32.1 7.8 17 16.6 ESE 22 35 12 19 1008.1 1005.9 0.0
25/03:30pm 38.5 34.0 6.3 14 18.1 ENE 19 28 10 15 1008.3 1006.1 0.0
25/03:00pm 38.2 33.1 6.0 14 18.0 ENE 22 33 12 18 1008.6 1006.4 0.0
25/02:30pm 37.8 32.9 6.7 15 17.6 SE 22 37 12 20 1009.1 1006.9 0.0
25/02:00pm 37.8 32.7 7.7 16 17.3 E 24 43 13 23 1009.3 1007.1 0.0
25/01:50pm 37.1 30.9 6.2 15 17.3 ENE 28 46 15 25 1009.4 1007.2 0.0
25/01:30pm 37.1 32.1 8.0 17 16.7 SE 24 35 13 19 1009.7 1007.5 0.0
25/01:00pm 37.1 33.2 8.8 18 16.4 ESE 19 32 10 17 1010.5 1008.2 0.0
25/12:31pm 36.5 30.3 9.2 19 15.9 E 32 50 17 27 1010.7 1008.4 0.0
25/12:30pm 36.8 31.4 9.4 19 16.0 E 28 39 15 21 1010.7 1008.4 0.0
25/12:00pm 35.7 30.8 10.0 21 15.1 E 26 33 14 18 1011.4 1009.2 0.0
25/11:30am 36.2 32.4 9.7 20 15.5 E 20 32 11 17 1011.7 1009.5 0.0
25/11:00am 34.3 31.1 11.4 25 13.7 NE 19 32 10 17 1012.2 1010.0 0.0
25/10:30am 33.6 31.9 12.6 28 12.7 NE 13 26 7 14 1012.5 1010.3 0.0
25/10:00am 33.2 31.9 13.8 31 11.9 NE 13 26 7 14 1012.7 1010.5 0.0
25/09:30am 31.6 29.0 13.8 34 10.9 NNE 20 33 11 18 1012.7 1010.5 0.0
25/09:00am 30.6 28.0 13.8 35 10.2 NNE 20 28 11 15 1012.9 1010.7 0.0
25/08:30am 29.5 26.6 14.1 39 9.4 NNE 22 30 12 16 1013.0 1010.8 0.0
25/08:00am 29.0 26.9 14.8 42 8.7 NNE 19 22 10 12 1013.1 1010.9 0.0
25/07:30am 27.4 24.9 15.1 47 7.6 NNE 22 32 12 17 1012.7 1010.5 0.0
25/07:00am 26.6 25.6 15.6 50 6.8 NNE 15 24 8 13 1012.6 1010.4 0.0
25/06:30am 25.4 24.3 15.4 54 6.1 NNE 15 19 8 10 1012.2 1010.0 0.0
25/06:00am 25.0 23.9 15.3 55 5.9 ENE 15 20 8 11 1011.7 1009.5 0.0
25/05:30am 25.0 23.1 15.3 55 5.9 NE 19 24 10 13 1011.2 1009.0 0.0
25/05:00am 25.2 24.1 15.2 54 6.1 ENE 15 22 8 12 1011.2 1009.0 0.0
25/04:30am 25.6 24.0 15.0 52 6.5 ENE 17 22 9 12 1010.9 1008.7 0.0
25/04:00am 25.8 23.2 14.9 51 6.6 NE 22 28 12 15 1010.5 1008.2 0.0
25/03:30am 26.2 23.8 15.3 51 6.7 NE 22 28 12 15 1010.3 1008.0 0.0
25/03:00am 26.6 24.2 15.3 50 7.0 NE 22 32 12 17 1010.5 1008.2 0.0
25/02:30am 27.1 24.6 15.1 47 7.4 NE 22 30 12 16 1010.6 1008.3 0.0
25/02:00am 27.6 25.5 15.3 47 7.6 NE 20 26 11 14 1010.5 1008.2 0.0
25/01:30am 28.0 25.8 15.0 45 8.0 NE 20 28 11 15 1010.5 1008.2 0.0
25/01:00am 28.4 26.1 14.6 43 8.5 NE 20 28 11 15 1011.0 1008.8 0.0
25/12:30am 28.8 27.2 15.0 43 8.5 NE 17 22 9 12 1011.3 1009.1 0.0
25/12:00am 29.2 25.9 15.0 42 8.8 NE 26 37 14 20 1011.4 1009.2 0.0
 
Date/Time
EST
Temp
°C
App
Temp
°C
Dew
Point
Rel
Hum
%
Delta-T
°C
Wind Press
QNH
hPa
Press
MSL
hPa
Rain
since 9 am
mm
Dir
 
Spd
km/h
Gust
km/h
Spd
kts
Gust
kts
24/11:30pm 29.9 25.4 14.8 39 9.3 NE 32 43 17 23 1011.5 1009.3 0.0
24/11:00pm 30.7 26.8 14.3 36 10.1 NE 28 41 15 22 1011.3 1009.1 0.0
24/10:30pm 31.9 26.7 12.7 31 11.6 NE 32 43 17 23 1011.1 1008.9 0.0
24/10:00pm 33.1 29.1 9.2 23 13.7 E 20 28 11 15 1010.5 1008.2 0.0
24/09:30pm 33.3 29.6 8.0 21 14.3 ESE 17 24 9 13 1010.3 1008.0 0.0
24/09:00pm 33.1 29.4 6.4 19 14.7 ESE 15 19 8 10 1010.1 1007.8 0.0
24/08:30pm 33.4 29.4 5.0 17 15.3 ESE 15 19 8 10 1009.8 1007.6 0.0
24/08:00pm 34.2 29.8 4.8 16 15.9 ESE 17 20 9 11 1009.6 1007.4 0.0
24/07:30pm 34.8 31.1 4.4 15 16.3 SE 13 15 7 8 1009.2 1007.0 0.0

Other Formats:

Comma delimited format used in spreadsheet applications
http://www.bom.gov.au/fwo/IDQ60801/IDQ60801.94343.axf

JavaScript Object Notation format (JSON) in row-major order
http://www.bom.gov.au/fwo/IDQ60801/IDQ60801.94343.json